createdAt,value
2023-09-06T00:03:28.424Z,19.40
2023-09-06T00:07:31.318Z,19.29
2023-09-06T00:11:34.698Z,19.18
2023-09-06T00:15:39.410Z,19.11
2023-09-06T00:19:43.773Z,19.05
2023-09-06T00:23:46.446Z,19.00
2023-09-06T00:27:51.401Z,18.94
2023-09-06T00:31:56.498Z,18.91
2023-09-06T00:35:59.474Z,18.89
2023-09-06T00:40:11.124Z,18.85
2023-09-06T00:44:13.927Z,18.81
2023-09-06T00:48:20.777Z,18.77
2023-09-06T00:52:24.869Z,18.73
2023-09-06T00:56:29.024Z,18.68
2023-09-06T01:00:32.662Z,18.63
2023-09-06T01:04:38.519Z,18.59
2023-09-06T01:08:47.220Z,18.57
2023-09-06T01:12:50.120Z,18.51
2023-09-06T01:16:55.623Z,18.49
2023-09-06T01:21:07.155Z,18.46
2023-09-06T01:25:13.061Z,18.38
2023-09-06T01:29:15.865Z,18.24
2023-09-06T01:33:18.602Z,18.11
2023-09-06T01:37:22.468Z,18.03
2023-09-06T01:41:26.466Z,18.02
2023-09-06T01:45:30.629Z,18.03
2023-09-06T01:49:33.390Z,18.03
2023-09-06T01:53:36.184Z,18.04
2023-09-06T01:57:40.351Z,18.04
2023-09-06T02:01:43.088Z,18.04
2023-09-06T02:05:45.853Z,18.01
2023-09-06T02:09:48.953Z,17.99
2023-09-06T02:13:53.275Z,17.96
2023-09-06T02:17:56.065Z,17.93
2023-09-06T02:22:02.268Z,17.89
2023-09-06T02:26:05.184Z,17.85
2023-09-06T02:30:10.581Z,17.81
2023-09-06T02:34:13.293Z,17.73
2023-09-06T02:38:16.065Z,17.66
2023-09-06T02:42:19.015Z,17.62
2023-09-06T02:46:23.403Z,17.49
2023-09-06T02:50:26.238Z,17.45
2023-09-06T02:54:30.708Z,17.41
2023-09-06T02:58:38.984Z,17.39
2023-09-06T03:02:44.079Z,17.35
2023-09-06T03:06:47.097Z,17.34
2023-09-06T03:10:50.514Z,17.33
2023-09-06T03:14:56.802Z,17.32
2023-09-06T03:19:01.364Z,17.32
2023-09-06T03:23:18.113Z,17.32
2023-09-06T03:27:24.510Z,17.31
2023-09-06T03:31:27.510Z,17.30
2023-09-06T03:35:32.651Z,17.28
2023-09-06T03:39:38.575Z,17.26
2023-09-06T03:43:43.906Z,17.25
2023-09-06T03:47:47.586Z,17.24
2023-09-06T03:51:51.947Z,17.21
2023-09-06T03:55:58.981Z,17.18
2023-09-06T04:00:27.756Z,17.14
2023-09-06T04:04:42.536Z,17.08
2023-09-06T04:08:46.751Z,17.04
2023-09-06T04:12:51.938Z,17.00
2023-09-06T04:16:54.961Z,16.95
2023-09-06T04:21:01.116Z,16.89
2023-09-06T04:25:07.203Z,16.84
2023-09-06T04:29:10.113Z,16.79
2023-09-06T04:33:14.115Z,16.79
2023-09-06T04:37:21.571Z,16.76
2023-09-06T04:41:27.871Z,16.74
2023-09-06T04:45:38.479Z,16.71
2023-09-06T04:49:41.759Z,16.68
2023-09-06T04:53:46.312Z,16.64
2023-09-06T04:57:54.478Z,16.61
2023-09-06T05:01:57.942Z,16.58
2023-09-06T05:06:01.323Z,16.55
2023-09-06T05:10:05.830Z,16.53
2023-09-06T05:14:12.179Z,16.54
2023-09-06T05:18:15.908Z,16.44
2023-09-06T05:22:21.038Z,16.38
2023-09-06T05:26:23.928Z,16.35
2023-09-06T05:30:28.830Z,16.33
2023-09-06T05:34:32.106Z,16.35
2023-09-06T05:38:35.665Z,16.37
2023-09-06T05:42:39.787Z,16.41
2023-09-06T05:46:45.297Z,16.46
2023-09-06T05:50:50.190Z,16.49
2023-09-06T05:54:55.796Z,16.54
2023-09-06T05:59:01.765Z,16.57
2023-09-06T06:03:07.665Z,16.63
2023-09-06T06:07:10.418Z,16.68
2023-09-06T06:11:13.788Z,16.78
2023-09-06T06:15:28.751Z,16.85
2023-09-06T06:19:33.786Z,16.95
2023-09-06T06:23:36.854Z,17.04
2023-09-06T06:27:45.637Z,17.14
2023-09-06T06:31:48.867Z,17.30
2023-09-06T06:35:53.504Z,17.43
2023-09-06T06:40:00.071Z,17.56
2023-09-06T06:44:03.432Z,17.77
2023-09-06T06:48:07.507Z,17.89
2023-09-06T06:52:11.845Z,18.05
2023-09-06T06:56:15.575Z,18.21
2023-09-06T07:00:35.833Z,18.40
2023-09-06T07:04:38.812Z,18.65
2023-09-06T07:08:43.921Z,19.02
2023-09-06T07:12:46.671Z,19.44
2023-09-06T07:16:49.778Z,20.00
2023-09-06T07:20:53.290Z,20.65
2023-09-06T07:24:57.593Z,21.29
2023-09-06T07:29:00.480Z,21.91
2023-09-06T07:33:03.900Z,22.42
2023-09-06T07:37:06.728Z,22.96
2023-09-06T07:41:12.341Z,23.46
2023-09-06T07:45:15.214Z,23.91
2023-09-06T07:49:18.622Z,24.37
2023-09-06T07:53:21.700Z,24.73
2023-09-06T07:57:25.916Z,25.16
2023-09-06T08:01:29.113Z,25.52
2023-09-06T08:05:33.116Z,25.86
2023-09-06T08:09:36.618Z,26.10
2023-09-06T08:13:42.621Z,26.36
2023-09-06T08:17:48.488Z,26.65
2023-09-06T08:21:51.855Z,27.02
2023-09-06T08:25:55.269Z,27.30
2023-09-06T08:29:59.867Z,27.52
2023-09-06T08:34:03.358Z,27.78
2023-09-06T08:38:06.765Z,27.98
2023-09-06T08:42:09.581Z,28.29
2023-09-06T08:46:20.821Z,28.66
2023-09-06T08:50:24.285Z,28.98
2023-09-06T08:54:28.781Z,29.29
2023-09-06T08:58:52.093Z,29.50
2023-09-06T09:02:56.842Z,29.78
2023-09-06T09:07:00.109Z,30.18
2023-09-06T09:11:10.739Z,30.52
2023-09-06T09:15:23.387Z,30.70
2023-09-06T09:19:28.858Z,30.84
2023-09-06T09:23:32.203Z,30.99
2023-09-06T09:27:35.480Z,31.25
2023-09-06T09:31:39.717Z,31.56
2023-09-06T09:35:45.853Z,31.81
2023-09-06T09:39:49.667Z,32.02
2023-09-06T09:44:14.568Z,32.25
2023-09-06T09:48:18.691Z,32.56
2023-09-06T09:52:27.187Z,32.59
2023-09-06T09:56:31.102Z,32.78
2023-09-06T10:00:34.846Z,32.73
2023-09-06T10:04:39.323Z,32.68
2023-09-06T10:08:47.767Z,32.78
2023-09-06T10:12:53.193Z,32.95
2023-09-06T10:16:56.302Z,33.16
2023-09-06T10:21:00.958Z,33.49
2023-09-06T10:25:08.528Z,33.57
2023-09-06T10:29:11.392Z,33.75
2023-09-06T10:33:55.020Z,33.93
2023-09-06T10:38:08.643Z,33.98
2023-09-06T10:42:30.317Z,34.04
2023-09-06T10:46:34.590Z,34.15
2023-09-06T10:50:37.965Z,34.29
2023-09-06T10:54:42.786Z,34.61
2023-09-06T10:58:47.524Z,34.69
2023-09-06T11:03:15.465Z,34.84
2023-09-06T11:07:18.437Z,34.89
2023-09-06T11:11:22.128Z,34.89
2023-09-06T11:15:26.698Z,34.93
2023-09-06T11:19:30.635Z,34.92
2023-09-06T11:23:45.224Z,35.06
2023-09-06T11:27:48.562Z,35.16
2023-09-06T11:31:55.626Z,35.18
2023-09-06T11:36:01.884Z,35.29
2023-09-06T11:40:13.796Z,35.39
2023-09-06T11:44:19.354Z,35.49
2023-09-06T11:48:28.776Z,35.61
2023-09-06T11:52:36.593Z,35.63
2023-09-06T11:56:48.648Z,35.66
2023-09-06T12:00:52.534Z,35.81
2023-09-06T12:05:02.027Z,35.83
2023-09-06T12:09:04.863Z,36.00
2023-09-06T12:13:07.906Z,36.03
2023-09-06T12:17:12.508Z,35.93
2023-09-06T12:21:17.524Z,35.96
2023-09-06T12:25:21.132Z,36.08
2023-09-06T12:29:23.866Z,36.06
2023-09-06T12:33:28.717Z,36.15
2023-09-06T12:37:35.278Z,36.21
2023-09-06T12:41:38.074Z,36.07
2023-09-06T12:45:40.914Z,36.16
2023-09-06T12:49:43.643Z,36.18
2023-09-06T12:53:47.747Z,36.20
2023-09-06T12:57:52.290Z,36.21
2023-09-06T13:01:55.110Z,36.13
2023-09-06T13:05:57.950Z,36.01
2023-09-06T13:10:02.136Z,35.82
2023-09-06T13:14:04.861Z,35.90
2023-09-06T13:18:08.190Z,35.90
2023-09-06T13:22:12.257Z,35.85
2023-09-06T13:26:16.604Z,35.77
2023-09-06T13:30:19.594Z,35.89
2023-09-06T13:34:22.439Z,35.92
2023-09-06T13:38:26.064Z,35.73
2023-09-06T13:42:32.283Z,35.51
2023-09-06T13:46:36.179Z,35.55
2023-09-06T13:50:38.979Z,35.65
2023-09-06T13:54:41.672Z,35.73
2023-09-06T13:58:46.766Z,35.71
2023-09-06T14:02:51.033Z,35.70
2023-09-06T14:06:55.614Z,35.68
2023-09-06T14:10:59.332Z,35.54
2023-09-06T14:15:03.422Z,35.45
2023-09-06T14:19:07.045Z,35.30
2023-09-06T14:23:12.147Z,35.20
2023-09-06T14:27:17.100Z,35.11
2023-09-06T14:31:21.597Z,34.97
2023-09-06T14:35:25.357Z,34.81
2023-09-06T14:39:28.654Z,34.67
2023-09-06T14:43:34.163Z,34.52
2023-09-06T14:47:38.410Z,34.34
2023-09-06T14:51:41.342Z,34.33
2023-09-06T14:55:44.069Z,34.16
2023-09-06T14:59:46.804Z,34.05
2023-09-06T15:03:51.100Z,33.88
2023-09-06T15:07:54.162Z,33.74
2023-09-06T15:11:56.982Z,33.60
2023-09-06T15:16:00.148Z,33.58
2023-09-06T15:20:07.712Z,33.58
2023-09-06T15:24:11.258Z,33.49
2023-09-06T15:28:14.158Z,33.39
2023-09-06T15:32:17.226Z,33.23
2023-09-06T15:36:22.054Z,33.07
2023-09-06T15:40:25.190Z,32.94
2023-09-06T15:44:29.129Z,32.77
2023-09-06T15:48:32.288Z,32.58
2023-09-06T15:52:37.189Z,32.48
2023-09-06T15:56:44.016Z,32.36
2023-09-06T16:00:47.203Z,32.20
2023-09-06T16:04:51.161Z,32.10
2023-09-06T16:08:57.104Z,32.07
2023-09-06T16:13:00.383Z,31.99
2023-09-06T16:17:04.909Z,31.99
2023-09-06T16:21:08.328Z,31.94
2023-09-06T16:25:15.240Z,31.83
2023-09-06T16:29:41.046Z,31.66
2023-09-06T16:33:44.138Z,31.55
2023-09-06T16:37:51.542Z,31.41
2023-09-06T16:41:56.025Z,31.26
2023-09-06T16:46:01.853Z,31.14
2023-09-06T16:50:06.232Z,30.93
2023-09-06T16:54:09.798Z,30.72
2023-09-06T16:58:14.635Z,30.57
2023-09-06T17:02:18.036Z,30.33
2023-09-06T17:06:23.690Z,30.16
2023-09-06T17:10:27.108Z,30.01
2023-09-06T17:14:31.385Z,29.87
2023-09-06T17:18:36.443Z,29.71
2023-09-06T17:22:41.081Z,29.52
2023-09-06T17:26:46.620Z,29.34
2023-09-06T17:30:58.184Z,29.16
2023-09-06T17:35:02.502Z,29.00
2023-09-06T17:39:09.246Z,28.83
2023-09-06T17:43:13.144Z,28.67
2023-09-06T17:47:19.298Z,28.50
2023-09-06T17:51:23.820Z,28.33
2023-09-06T17:55:27.851Z,28.16
2023-09-06T17:59:31.302Z,28.01
2023-09-06T18:03:39.465Z,27.88
2023-09-06T18:07:43.021Z,27.71
2023-09-06T18:11:45.894Z,27.53
2023-09-06T18:15:50.576Z,27.32
2023-09-06T18:19:56.549Z,27.14
2023-09-06T18:24:04.372Z,26.96
2023-09-06T18:28:09.443Z,26.78
2023-09-06T18:32:16.039Z,26.63
2023-09-06T18:36:20.770Z,26.45
2023-09-06T18:40:23.704Z,26.26
2023-09-06T18:44:27.306Z,26.08
2023-09-06T18:48:30.663Z,25.90
2023-09-06T18:52:37.483Z,25.76
2023-09-06T18:56:40.553Z,25.64
2023-09-06T19:00:45.828Z,25.50
2023-09-06T19:04:49.490Z,25.38
2023-09-06T19:08:53.635Z,25.25
2023-09-06T19:12:57.476Z,25.14
2023-09-06T19:17:01.079Z,24.98
2023-09-06T19:21:04.101Z,24.84
2023-09-06T19:25:09.992Z,24.69
2023-09-06T19:29:13.820Z,24.56
2023-09-06T19:33:17.157Z,24.44
2023-09-06T19:37:21.345Z,24.30
2023-09-06T19:41:26.221Z,24.19
2023-09-06T19:45:29.840Z,24.05
2023-09-06T19:49:42.173Z,23.94
2023-09-06T19:53:45.430Z,23.79
2023-09-06T19:57:50.827Z,23.82
2023-09-06T20:01:54.595Z,23.68
2023-09-06T20:06:00.151Z,23.54
2023-09-06T20:10:05.303Z,23.43
2023-09-06T20:14:12.428Z,23.34
2023-09-06T20:18:15.646Z,23.24
2023-09-06T20:22:18.877Z,23.13
2023-09-06T20:26:22.777Z,23.00
2023-09-06T20:30:27.092Z,22.87
2023-09-06T20:34:33.082Z,22.75
2023-09-06T20:38:37.219Z,22.67
2023-09-06T20:42:40.473Z,22.54
2023-09-06T20:46:45.619Z,22.46
2023-09-06T20:50:52.595Z,22.39
2023-09-06T20:54:56.748Z,22.32
2023-09-06T20:58:59.457Z,22.25
2023-09-06T21:03:04.646Z,22.19
2023-09-06T21:07:08.048Z,22.12
2023-09-06T21:11:11.052Z,22.05
2023-09-06T21:15:14.098Z,21.98
2023-09-06T21:19:18.199Z,21.94
2023-09-06T21:23:21.004Z,21.86
2023-09-06T21:27:23.750Z,21.83
2023-09-06T21:31:27.231Z,21.75
2023-09-06T21:35:31.348Z,21.70
2023-09-06T21:39:34.249Z,21.64
2023-09-06T21:43:36.950Z,21.56
2023-09-06T21:47:40.030Z,21.53
2023-09-06T21:51:44.106Z,21.49
2023-09-06T21:55:46.792Z,21.45
2023-09-06T21:59:49.507Z,21.41
2023-09-06T22:03:52.326Z,21.41
2023-09-06T22:08:16.087Z,21.39
2023-09-06T22:12:37.306Z,21.35
2023-09-06T22:16:40.075Z,21.33
2023-09-06T22:20:43.342Z,21.32
2023-09-06T22:24:47.657Z,21.30
2023-09-06T22:28:53.359Z,21.25
2023-09-06T22:32:56.503Z,21.22
2023-09-06T22:37:00.069Z,21.16
2023-09-06T22:41:04.115Z,21.13
2023-09-06T22:45:07.591Z,21.09
2023-09-06T22:49:10.615Z,21.01
2023-09-06T22:53:13.666Z,20.96
2023-09-06T22:57:17.731Z,20.88
2023-09-06T23:01:21.588Z,20.81
2023-09-06T23:05:25.450Z,20.68
2023-09-06T23:09:28.187Z,20.59
2023-09-06T23:13:32.369Z,20.51
2023-09-06T23:17:39.589Z,20.43
2023-09-06T23:21:44.224Z,20.35
2023-09-06T23:25:52.118Z,20.26
2023-09-06T23:29:59.521Z,20.20
2023-09-06T23:34:10.380Z,20.16
2023-09-06T23:38:13.185Z,20.10
2023-09-06T23:42:18.095Z,20.06
2023-09-06T23:46:25.717Z,20.04
2023-09-06T23:50:32.410Z,20.00
2023-09-06T23:54:46.302Z,19.99
2023-09-06T23:58:50.421Z,19.98
